Nearby METAR Reports

 

KBFI - Seattle/Boeing, Washington, USA
Distance from station: S 4mi, 7km
Updated: 2018-04-23 17:53
Clear
Clear
 Wind from NW
Wind: NW 7 mph , 11 km/h
Temperature: 66°F , 19°C
Dew Point: 36°F , 2°C
Humidity: 32%
Barometer: 30.23 inHg , 1023.7 hPa
Clouds: Clear
Visibility: 10 miles , 16 km
2018/04/24 00:53 KBFI 240053Z 32006KT 10SM CLR 19/02 A3023 RMK AO2 SLP235 T01890017
KRNT - Renton, Washington, USA
Distance from station: SSE 9mi, 14km
Updated: 2018-04-23 17:53
Clear
Clear
 Wind from NW
Wind: NW 14 mph , 22 km/h
Temperature: 64°F , 18°C
Dew Point: 41°F , 5°C
Humidity: 43%
Barometer: 30.21 inHg , 1023 hPa
Clouds: Clear
Visibility: 10 miles , 16 km
2018/04/24 00:53 KRNT 240053Z 31012KT 10SM CLR 18/05 A3021 RMK AO2 SLP236 T01830050
 
KSEA - Seattle/Metro, Washington, USA
Distance from station: S 11mi, 18km
Updated: 2018-04-23 17:53
Few Clouds
Few Clouds
 Wind from N
Wind: N 16 mph , 26 km/h
Temperature: 66°F , 19°C
Dew Point: 39°F , 4°C
Humidity: 37%
Barometer: 30.23 inHg , 1023.7 hPa
Clouds: Few Clouds
Visibility: 10 miles , 16 km
Cloud details: Few Clouds 25000 ft
2018/04/24 00:53 KSEA 240053Z 35014KT 10SM FEW250 19/04 A3023 RMK AO2 SLP242 T01890039
KPAE - Everett, Washington, USA
Distance from station: N 21mi, 34km
Updated: 2018-04-23 17:53
Clear
Clear
 Wind from NW
Wind: NW 12 mph , 19 km/h
Temperature: 63°F , 17°C
Dew Point: 32°F , 0°C
Humidity: 32%
Barometer: 30.26 inHg , 1024.7 hPa
Clouds: Clear
Visibility: 10 miles , 16 km
2018/04/24 00:53 KPAE 240053Z 32010KT 10SM CLR 17/00 A3026 RMK AO2 SLP247 T01720000
 
KPWT - Bremerton Ntnl, Washington, USA
Distance from station: WSW 22mi, 35km
Updated: 2018-04-23 17:56
Clear
Clear
 Wind from NNE
Wind: NNE 14 mph , 22 km/h
Temperature: 68°F , 20°C
Dew Point: 36°F , 2°C
Humidity: 30%
Barometer: 30.23 inHg , 1023.7 hPa
Clouds: Clear
Visibility: 10 miles , 16 km
2018/04/24 00:56 KPWT 240056Z AUTO 02012KT 10SM CLR 20/02 A3023 RMK AO2 SLP256 T02000017
KTIW - Tacoma, Washington, USA
Distance from station: SSW 27mi, 43km
Updated: 2018-04-23 17:53
Clear
Clear
 Wind from N
Wind: N 16 mph , 26 km/h
Temperature: 64°F , 18°C
Dew Point: 30°F , -1°C
Humidity: 28%
Barometer: 30.22 inHg , 1023.4 hPa
Clouds: Clear
Visibility: 10 miles , 16 km
2018/04/24 00:53 KTIW 240053Z 01014KT 10SM CLR 18/M01 A3022 RMK AO2 SLP235 T01781006
 
KTCM - Tacoma/Mc Chord, Washington, USA
Distance from station: S 35mi, 56km
Updated: 2018-04-23 17:58
Clear
Clear
 Wind from NNE
Wind: NNE 15 mph , 24 km/h, Gust: 22 mph , 35 km/h
Temperature: 68°F , 20°C
Dew Point: 41°F , 5°C
Humidity: 38%
Barometer: 30.21 inHg , 1023 hPa
Clouds: Clear
Visibility: 10 miles , 16 km
2018/04/24 00:58 KTCM 240058Z AUTO 02013G19KT 10SM CLR 20/05 A3021 RMK AO2 SLP235 T01960045 $
KPLU - Puyallup/Thun, Washington, USA
Distance from station: S 35mi, 57km
Updated: 2018-04-23 17:55
Clear
Clear
 Wind from varies
Wind: varies 5 mph , 7 km/h, Gust: 13 mph , 20 km/h
Temperature: 66°F , 19°C
Dew Point: 36°F , 2°C
Humidity: 32%
Barometer: 30.22 inHg , 1023.4 hPa
Clouds: Clear
Visibility: 10 miles , 16 km
2018/04/24 00:55 KPLU 240055Z AUTO VRB04G11KT 10SM CLR 19/02 A3022 RMK AO2
 
K0S9 - Port Townsend, Washington, USA
Distance from station: NW 38mi, 62km
Updated: 2018-04-23 17:55
Clear
Clear
 Wind from calm
Wind: Calm
Temperature: 64°F , 18°C
Dew Point: 32°F , 0°C
Humidity: 30%
Barometer: 30.27 inHg , 1025.1 hPa
Clouds: Clear
Visibility: 10 miles , 16 km
2018/04/24 00:55 K0S9 240055Z AUTO 00000KT 10SM CLR 18/M00 A3027 RMK AO2
KAWO - Arlington Muni, Washington, USA
Distance from station: N 39mi, 63km
Updated: 2018-04-23 17:56
Clear
Clear
 Wind from WNW
Wind: WNW 13 mph , 20 km/h
Temperature: 64°F , 18°C
Dew Point: 39°F , 4°C
Humidity: 40%
Barometer: 30.25 inHg , 1024.4 hPa
Clouds: Clear
Visibility: 10 miles , 16 km
2018/04/24 00:56 KAWO 240056Z AUTO 30011KT 10SM CLR 18/04 A3025 RMK AO2 SLP247 T01830039
 
KGRF - Fort Lewis/Gray, Washington, USA
Distance from station: SSW 39mi, 64km
Updated: 2018-04-23 17:56
Clear
Clear
 Wind from N
Wind: N 10 mph , 17 km/h
Temperature: 70°F , 21°C
Dew Point: 39°F , 4°C
Humidity: 33%
Barometer: 30.21 inHg , 1023 hPa
Clouds: Clear
Visibility: 10 miles , 16 km
2018/04/24 00:56 KGRF 240056Z AUTO 36009KT 10SM CLR 21/04 A3021 RMK AO2 SLP235 T02080044 RVRNO $
KSHN - Shelton, Washington, USA
Distance from station: SW 46mi, 75km
Updated: 2018-04-23 17:53
Clear
Clear
 Wind from NNW
Wind: NNW 9 mph , 15 km/h
Temperature: 72°F , 22°C
Dew Point: 28°F , -2°C
Humidity: 20%
Barometer: 30.19 inHg , 1022.4 hPa
Clouds: Clear
Visibility: 10 miles , 16 km
2018/04/24 00:53 KSHN 240053Z AUTO 34008KT 10SM CLR 22/M02 A3019 RMK AO2 SLP224 T02171017